createdAt,value
2018-10-02T00:01:16.741Z,5.40
2018-10-02T00:03:45.296Z,5.30
2018-10-02T00:06:13.806Z,5.20
2018-10-02T00:08:42.361Z,5.00
2018-10-02T00:11:16.150Z,5.00
2018-10-02T00:13:50.038Z,5.10
2018-10-02T00:16:18.545Z,5.20
2018-10-02T00:18:47.104Z,5.10
2018-10-02T00:21:15.656Z,5.20
2018-10-02T00:23:44.216Z,5.20
2018-10-02T00:26:12.742Z,5.30
2018-10-02T00:28:41.304Z,5.40
2018-10-02T00:31:10.945Z,5.40
2018-10-02T00:33:39.518Z,5.40
2018-10-02T00:36:08.085Z,5.30
2018-10-02T00:38:36.658Z,5.30
2018-10-02T00:41:05.192Z,5.10
2018-10-02T00:43:33.789Z,5.10
2018-10-02T00:46:02.357Z,5.10
2018-10-02T00:48:30.910Z,5.00
2018-10-02T00:50:59.494Z,5.00
2018-10-02T00:53:28.626Z,5.00
2018-10-02T00:55:57.217Z,5.00
2018-10-02T00:58:26.505Z,5.00
2018-10-02T01:00:55.067Z,5.10
2018-10-02T01:03:23.605Z,5.10
2018-10-02T01:05:52.153Z,5.00
2018-10-02T01:08:20.692Z,5.10
2018-10-02T01:10:49.243Z,5.10
2018-10-02T01:13:17.769Z,5.00
2018-10-02T01:15:46.337Z,5.00
2018-10-02T01:18:14.938Z,5.00
2018-10-02T01:20:43.537Z,5.00
2018-10-02T01:23:12.063Z,4.90
2018-10-02T01:25:40.601Z,4.90
2018-10-02T01:28:09.333Z,4.90
2018-10-02T01:30:37.884Z,4.90
2018-10-02T01:33:06.677Z,4.70
2018-10-02T01:35:35.209Z,4.70
2018-10-02T01:38:03.726Z,4.70
2018-10-02T01:40:32.266Z,4.70
2018-10-02T01:43:00.771Z,4.70
2018-10-02T01:45:29.305Z,4.70
2018-10-02T01:47:57.833Z,4.70
2018-10-02T01:50:26.361Z,4.70
2018-10-02T01:52:54.876Z,4.70
2018-10-02T01:55:23.409Z,4.80
2018-10-02T01:57:51.916Z,4.80
2018-10-02T02:00:20.441Z,4.80
2018-10-02T02:02:48.985Z,4.60
2018-10-02T02:05:17.533Z,4.60
2018-10-02T02:07:46.049Z,4.60
2018-10-02T02:10:14.591Z,4.60
2018-10-02T02:12:43.097Z,4.60
2018-10-02T02:15:11.642Z,4.60
2018-10-02T02:17:40.153Z,4.60
2018-10-02T02:20:08.731Z,4.70
2018-10-02T02:22:37.267Z,4.80
2018-10-02T02:25:05.876Z,4.90
2018-10-02T02:27:34.394Z,5.00
2018-10-02T02:30:02.966Z,5.00
2018-10-02T02:32:31.481Z,5.20
2018-10-02T02:35:00.027Z,5.20
2018-10-02T02:37:28.544Z,5.30
2018-10-02T02:39:57.094Z,5.20
2018-10-02T02:42:25.622Z,5.10
2018-10-02T02:44:54.165Z,5.00
2018-10-02T02:47:28.092Z,4.90
2018-10-02T02:50:01.871Z,4.90
2018-10-02T02:52:34.670Z,5.00
2018-10-02T02:55:03.177Z,5.00
2018-10-02T02:57:31.682Z,5.10
2018-10-02T03:00:00.293Z,5.20
2018-10-02T03:02:28.834Z,5.30
2018-10-02T03:04:57.346Z,5.30
2018-10-02T03:07:25.876Z,5.30
2018-10-02T03:09:54.369Z,5.30
2018-10-02T03:12:22.894Z,5.30
2018-10-02T03:14:51.397Z,5.30
2018-10-02T03:17:19.953Z,5.40
2018-10-02T03:19:48.489Z,5.40
2018-10-02T03:22:17.018Z,5.30
2018-10-02T03:24:45.701Z,5.30
2018-10-02T03:27:14.309Z,5.30
2018-10-02T03:29:42.810Z,5.40
2018-10-02T03:32:11.584Z,5.50
2018-10-02T03:34:40.555Z,5.50
2018-10-02T03:37:09.076Z,5.60
2018-10-02T03:39:37.952Z,5.50
2018-10-02T03:42:06.564Z,5.50
2018-10-02T03:44:35.055Z,5.40
2018-10-02T03:47:03.577Z,5.40
2018-10-02T03:49:32.074Z,5.40
2018-10-02T03:52:00.581Z,5.40
2018-10-02T03:54:29.553Z,5.40
2018-10-02T03:56:58.069Z,5.40
2018-10-02T03:59:26.548Z,5.40
2018-10-02T04:01:55.081Z,5.40
2018-10-02T04:04:23.564Z,5.50
2018-10-02T04:06:52.078Z,5.50
2018-10-02T04:09:20.561Z,5.40
2018-10-02T04:11:49.073Z,5.40
2018-10-02T04:14:17.562Z,5.40
2018-10-02T04:16:46.081Z,5.30
2018-10-02T04:19:14.642Z,5.40
2018-10-02T04:21:43.161Z,5.30
2018-10-02T04:24:11.645Z,5.40
2018-10-02T04:26:40.183Z,5.30
2018-10-02T04:29:08.681Z,5.40
2018-10-02T04:31:38.157Z,5.40
2018-10-02T04:34:06.718Z,5.30
2018-10-02T04:36:35.285Z,5.40
2018-10-02T04:39:05.077Z,5.40
2018-10-02T04:41:33.589Z,5.50
2018-10-02T04:44:02.070Z,5.50
2018-10-02T04:46:30.557Z,5.60
2018-10-02T04:48:59.073Z,5.60
2018-10-02T04:51:27.541Z,5.70
2018-10-02T04:53:56.045Z,5.80
2018-10-02T04:56:24.618Z,5.90
2018-10-02T04:58:53.070Z,5.80
2018-10-02T05:01:21.583Z,5.80
2018-10-02T05:03:50.094Z,5.90
2018-10-02T05:06:18.582Z,5.90
2018-10-02T05:08:47.130Z,5.90
2018-10-02T05:11:15.606Z,6.00
2018-10-02T05:13:46.326Z,5.90
2018-10-02T05:16:14.865Z,6.00
2018-10-02T05:18:43.362Z,6.00
2018-10-02T05:21:14.168Z,6.00
2018-10-02T05:23:44.519Z,6.00
2018-10-02T05:26:14.593Z,6.10
2018-10-02T05:28:44.914Z,6.10
2018-10-02T05:31:15.376Z,6.00
2018-10-02T05:33:44.017Z,6.00
2018-10-02T05:36:12.537Z,6.10
2018-10-02T05:38:41.131Z,6.10
2018-10-02T05:41:09.645Z,6.20
2018-10-02T05:43:38.242Z,6.20
2018-10-02T05:46:06.866Z,6.20
2018-10-02T05:48:35.519Z,6.30
2018-10-02T05:51:04.029Z,6.30
2018-10-02T05:53:32.747Z,6.40
2018-10-02T05:56:03.841Z,6.30
2018-10-02T05:58:33.777Z,6.40
2018-10-02T06:01:02.385Z,6.40
2018-10-02T06:03:31.223Z,6.30
2018-10-02T06:06:05.457Z,6.40
2018-10-02T06:08:37.715Z,6.50
2018-10-02T06:11:06.793Z,6.60
2018-10-02T06:13:35.345Z,6.60
2018-10-02T06:16:03.896Z,6.70
2018-10-02T06:18:34.093Z,6.70
2018-10-02T06:21:02.709Z,6.70
2018-10-02T06:23:31.252Z,6.70
2018-10-02T06:25:59.769Z,6.70
2018-10-02T06:28:28.438Z,6.80
2018-10-02T06:30:57.897Z,6.90
2018-10-02T06:33:26.428Z,7.00
2018-10-02T06:35:54.958Z,7.10
2018-10-02T06:38:23.618Z,7.20
2018-10-02T06:40:52.068Z,7.20
2018-10-02T06:43:22.271Z,7.30
2018-10-02T06:45:50.938Z,7.40
2018-10-02T06:48:19.557Z,7.50
2018-10-02T06:50:48.146Z,7.60
2018-10-02T06:53:16.674Z,7.70
2018-10-02T06:55:45.214Z,7.70
2018-10-02T06:58:13.787Z,7.80
2018-10-02T07:00:42.433Z,7.90
2018-10-02T07:03:10.977Z,8.20
2018-10-02T07:05:39.624Z,8.20
2018-10-02T07:08:08.222Z,8.40
2018-10-02T07:10:38.148Z,8.40
2018-10-02T07:13:06.999Z,8.50
2018-10-02T07:15:35.626Z,8.60
2018-10-02T07:18:04.182Z,8.50
2018-10-02T07:20:34.604Z,8.50
2018-10-02T07:23:03.195Z,8.60
2018-10-02T07:25:31.805Z,8.50
2018-10-02T07:28:01.121Z,8.50
2018-10-02T07:30:29.731Z,8.60
2018-10-02T07:32:58.397Z,8.70
2018-10-02T07:35:27.021Z,8.90
2018-10-02T07:37:55.533Z,8.80
2018-10-02T07:40:24.090Z,8.90
2018-10-02T07:42:52.617Z,9.10
2018-10-02T07:45:21.182Z,9.30
2018-10-02T07:47:49.714Z,9.50
2018-10-02T07:50:18.382Z,9.50
2018-10-02T07:52:47.037Z,9.60
2018-10-02T07:55:15.722Z,9.50
2018-10-02T07:57:44.261Z,9.70
2018-10-02T08:00:12.910Z,9.80
2018-10-02T08:02:41.522Z,10.10
2018-10-02T08:05:10.276Z,10.10
2018-10-02T08:07:38.845Z,10.10
2018-10-02T08:10:10.366Z,10.00
2018-10-02T08:12:38.901Z,9.70
2018-10-02T08:15:07.588Z,9.80
2018-10-02T08:17:36.201Z,9.80
2018-10-02T08:20:05.036Z,9.80
2018-10-02T08:22:34.507Z,9.90
2018-10-02T08:25:03.685Z,10.00
2018-10-02T08:27:34.648Z,10.00
2018-10-02T08:30:03.376Z,9.80
2018-10-02T08:32:31.916Z,9.80
2018-10-02T08:35:00.651Z,9.90
2018-10-02T08:37:30.673Z,10.00
2018-10-02T08:39:59.345Z,10.10
2018-10-02T08:42:27.867Z,9.90
2018-10-02T08:44:56.505Z,9.90
2018-10-02T08:47:31.100Z,10.00
2018-10-02T08:49:59.782Z,10.00
2018-10-02T08:52:28.286Z,10.00
2018-10-02T08:54:56.806Z,10.20
2018-10-02T08:57:25.312Z,10.30
2018-10-02T08:59:53.888Z,10.20
2018-10-02T09:02:22.445Z,10.20
2018-10-02T09:04:51.029Z,10.30
2018-10-02T09:07:19.607Z,10.20
2018-10-02T09:09:48.125Z,10.20
2018-10-02T09:12:16.621Z,10.30
2018-10-02T09:14:45.147Z,10.40
2018-10-02T09:17:13.977Z,10.40
2018-10-02T09:19:42.564Z,10.40
2018-10-02T09:22:11.085Z,10.50
2018-10-02T09:24:40.013Z,10.40
2018-10-02T09:27:08.509Z,10.60
2018-10-02T09:29:42.158Z,10.80
2018-10-02T09:32:15.989Z,10.80
2018-10-02T09:34:49.861Z,10.70
2018-10-02T09:37:23.743Z,10.80
2018-10-02T09:39:57.601Z,11.00
2018-10-02T09:42:31.418Z,10.90
2018-10-02T09:44:59.957Z,10.90
2018-10-02T09:47:28.489Z,10.80
2018-10-02T09:49:57.128Z,10.90
2018-10-02T09:52:25.802Z,10.70
2018-10-02T09:54:54.435Z,10.70
2018-10-02T09:57:23.630Z,10.70
2018-10-02T09:59:53.179Z,10.70
2018-10-02T10:02:37.243Z,10.80
2018-10-02T10:05:05.946Z,10.60
2018-10-02T10:07:34.477Z,10.60
2018-10-02T10:10:03.030Z,10.50
2018-10-02T10:12:31.649Z,10.50
2018-10-02T10:15:00.170Z,10.60
2018-10-02T10:17:29.430Z,10.50
2018-10-02T10:19:58.038Z,10.70
2018-10-02T10:22:26.561Z,10.90
2018-10-02T10:24:55.104Z,11.00
2018-10-02T10:27:23.664Z,10.90
2018-10-02T10:29:52.198Z,11.00
2018-10-02T10:32:20.756Z,11.10
2018-10-02T10:34:49.304Z,10.90
2018-10-02T10:37:17.851Z,10.90
2018-10-02T10:39:46.420Z,10.70
2018-10-02T10:42:15.010Z,10.60
2018-10-02T10:44:43.526Z,10.30
2018-10-02T10:47:12.158Z,10.20
2018-10-02T10:49:44.569Z,10.10
2018-10-02T10:52:14.082Z,10.00
2018-10-02T10:54:52.520Z,10.00
2018-10-02T10:57:21.121Z,10.10
2018-10-02T10:59:49.815Z,10.10
2018-10-02T11:02:18.397Z,10.10
2018-10-02T11:04:46.963Z,10.30
2018-10-02T11:07:15.514Z,10.10
2018-10-02T11:09:48.722Z,10.00
2018-10-02T11:12:17.417Z,10.00
2018-10-02T11:14:51.491Z,10.00
2018-10-02T11:17:20.279Z,10.10
2018-10-02T11:19:48.858Z,10.00
2018-10-02T11:22:17.445Z,10.00
2018-10-02T11:24:45.990Z,10.10
2018-10-02T11:27:14.621Z,10.30
2018-10-02T11:29:43.179Z,10.30
2018-10-02T11:32:11.742Z,10.30
2018-10-02T11:34:40.262Z,10.50
2018-10-02T11:37:08.975Z,10.60
2018-10-02T11:39:37.535Z,10.60
2018-10-02T11:42:06.145Z,10.60
2018-10-02T11:44:35.838Z,10.70
2018-10-02T11:47:04.390Z,10.50
2018-10-02T11:49:39.125Z,10.40
2018-10-02T11:52:08.189Z,10.20
2018-10-02T11:54:42.393Z,10.00
2018-10-02T11:57:11.144Z,9.80
2018-10-02T11:59:39.745Z,9.60
2018-10-02T12:02:08.331Z,9.40
2018-10-02T12:04:37.257Z,9.50
2018-10-02T12:07:06.014Z,9.50
2018-10-02T12:09:34.522Z,9.40
2018-10-02T12:12:03.097Z,9.50
2018-10-02T12:14:31.759Z,9.40
2018-10-02T12:17:00.266Z,9.50
2018-10-02T12:19:28.960Z,9.50
2018-10-02T12:21:57.634Z,9.40
2018-10-02T12:24:26.187Z,9.40
2018-10-02T12:26:54.744Z,9.50
2018-10-02T12:29:23.254Z,9.60
2018-10-02T12:31:51.948Z,9.70
2018-10-02T12:34:20.466Z,9.60
2018-10-02T12:36:49.378Z,9.70
2018-10-02T12:39:17.957Z,9.70
2018-10-02T12:41:46.449Z,9.80
2018-10-02T12:44:14.974Z,9.80
2018-10-02T12:46:43.479Z,9.70
2018-10-02T12:49:12.031Z,9.60
2018-10-02T12:51:40.585Z,9.60
2018-10-02T12:54:09.120Z,9.80
2018-10-02T12:56:37.642Z,9.80
2018-10-02T12:59:06.225Z,9.80
2018-10-02T13:01:34.737Z,9.90
2018-10-02T13:04:03.304Z,10.00
2018-10-02T13:06:31.814Z,10.10
2018-10-02T13:09:00.350Z,10.10
2018-10-02T13:11:28.865Z,10.00
2018-10-02T13:13:57.397Z,10.10
2018-10-02T13:16:25.954Z,10.10
2018-10-02T13:18:54.494Z,10.00
2018-10-02T13:21:23.043Z,10.30
2018-10-02T13:23:51.599Z,10.30
2018-10-02T13:26:20.117Z,10.20
2018-10-02T13:28:48.668Z,10.20
2018-10-02T13:31:17.189Z,10.20
2018-10-02T13:33:45.737Z,10.20
2018-10-02T13:36:14.266Z,10.30
2018-10-02T13:38:42.802Z,10.20
2018-10-02T13:41:11.309Z,10.10
2018-10-02T13:43:39.876Z,10.00
2018-10-02T13:46:08.398Z,10.10
2018-10-02T13:48:36.940Z,10.10
2018-10-02T13:51:05.821Z,10.10
2018-10-02T13:53:34.766Z,10.20
2018-10-02T13:56:03.304Z,10.30
2018-10-02T13:58:31.845Z,10.30
2018-10-02T14:01:00.362Z,10.30
2018-10-02T14:03:28.898Z,10.20
2018-10-02T14:05:57.438Z,10.20
2018-10-02T14:08:25.985Z,10.20
2018-10-02T14:10:54.544Z,10.20
2018-10-02T14:13:23.077Z,10.30
2018-10-02T14:15:51.600Z,10.30
2018-10-02T14:18:20.170Z,10.30
2018-10-02T14:20:48.718Z,10.20
2018-10-02T14:23:17.341Z,10.20
2018-10-02T14:25:45.861Z,10.20
2018-10-02T14:28:14.567Z,10.20
2018-10-02T14:30:42.972Z,10.20
2018-10-02T14:33:11.521Z,10.30
2018-10-02T14:35:40.021Z,10.20
2018-10-02T14:38:08.598Z,10.20
2018-10-02T14:40:37.293Z,10.20
2018-10-02T14:43:06.071Z,10.20
2018-10-02T14:45:34.554Z,10.10
2018-10-02T14:48:03.142Z,10.10
2018-10-02T14:50:31.657Z,10.20
2018-10-02T14:53:00.217Z,10.10
2018-10-02T14:55:28.773Z,10.10
2018-10-02T14:57:57.342Z,10.10
2018-10-02T15:00:25.921Z,10.20
2018-10-02T15:02:54.417Z,10.20
2018-10-02T15:05:22.966Z,10.30
2018-10-02T15:07:51.585Z,10.30
2018-10-02T15:10:20.162Z,10.30
2018-10-02T15:12:48.699Z,10.30
2018-10-02T15:15:17.249Z,10.30
2018-10-02T15:17:45.816Z,10.30
2018-10-02T15:20:14.374Z,10.30
2018-10-02T15:22:42.904Z,10.30
2018-10-02T15:25:11.510Z,10.50
2018-10-02T15:27:40.069Z,10.50
2018-10-02T15:30:08.838Z,10.40
2018-10-02T15:32:37.342Z,10.50
2018-10-02T15:35:06.770Z,10.60
2018-10-02T15:37:35.563Z,10.60
2018-10-02T15:40:04.145Z,10.60
2018-10-02T15:42:32.675Z,10.60
2018-10-02T15:45:01.257Z,10.50
2018-10-02T15:47:29.899Z,10.50
2018-10-02T15:49:58.464Z,10.50
2018-10-02T15:52:26.971Z,10.40
2018-10-02T15:54:55.522Z,10.40
2018-10-02T15:57:24.062Z,10.50
2018-10-02T15:59:52.597Z,10.50
2018-10-02T16:02:21.319Z,10.50
2018-10-02T16:04:49.874Z,10.40
2018-10-02T16:07:18.396Z,10.30
2018-10-02T16:09:46.937Z,10.30
2018-10-02T16:12:15.453Z,10.40
2018-10-02T16:14:43.996Z,10.30
2018-10-02T16:17:12.533Z,10.20
2018-10-02T16:19:41.110Z,10.20
2018-10-02T16:22:09.669Z,10.20
2018-10-02T16:24:38.179Z,10.10
2018-10-02T16:27:06.678Z,10.10
2018-10-02T16:29:35.214Z,10.10
2018-10-02T16:32:03.731Z,10.10
2018-10-02T16:34:32.300Z,10.10
2018-10-02T16:37:00.762Z,10.00
2018-10-02T16:39:29.273Z,10.00
2018-10-02T16:41:57.774Z,10.00
2018-10-02T16:44:26.290Z,10.00
2018-10-02T16:46:54.860Z,10.00
2018-10-02T16:49:23.365Z,10.00
2018-10-02T16:51:51.869Z,10.10
2018-10-02T16:54:20.372Z,10.20
2018-10-02T16:56:48.866Z,10.20
2018-10-02T16:59:17.366Z,10.20
2018-10-02T17:01:46.025Z,10.20
2018-10-02T17:04:14.514Z,10.20
2018-10-02T17:06:43.209Z,10.20
2018-10-02T17:09:11.700Z,10.20
2018-10-02T17:11:40.573Z,10.20
2018-10-02T17:14:09.073Z,10.30
2018-10-02T17:16:37.789Z,10.20
2018-10-02T17:19:06.397Z,10.20
2018-10-02T17:21:35.786Z,10.20
2018-10-02T17:24:04.330Z,10.30
2018-10-02T17:26:32.876Z,10.20
2018-10-02T17:29:01.618Z,10.30
2018-10-02T17:31:30.272Z,10.20
2018-10-02T17:33:58.766Z,10.20
2018-10-02T17:36:27.347Z,10.30
2018-10-02T17:38:55.913Z,10.20
2018-10-02T17:41:24.551Z,10.30
2018-10-02T17:43:53.166Z,10.30
2018-10-02T17:46:21.802Z,10.40
2018-10-02T17:48:50.490Z,10.50
2018-10-02T17:51:19.296Z,10.50
2018-10-02T17:53:47.825Z,10.50
2018-10-02T17:56:16.365Z,10.40
2018-10-02T17:58:44.926Z,10.40
2018-10-02T18:01:13.548Z,10.50
2018-10-02T18:03:42.109Z,10.50
2018-10-02T18:06:10.694Z,10.50
2018-10-02T18:08:39.338Z,10.60
2018-10-02T18:11:08.149Z,10.60
2018-10-02T18:13:36.903Z,10.60
2018-10-02T18:16:05.522Z,10.60
2018-10-02T18:18:34.036Z,10.60
2018-10-02T18:21:02.594Z,10.60
2018-10-02T18:23:31.085Z,10.70
2018-10-02T18:25:59.594Z,10.70
2018-10-02T18:28:28.120Z,10.70
2018-10-02T18:30:56.633Z,10.70
2018-10-02T18:33:25.105Z,10.70
2018-10-02T18:35:53.620Z,10.70
2018-10-02T18:38:22.111Z,10.80
2018-10-02T18:40:50.649Z,10.80
2018-10-02T18:43:19.136Z,10.80
2018-10-02T18:45:47.694Z,10.90
2018-10-02T18:48:16.209Z,10.90
2018-10-02T18:50:44.761Z,10.80
2018-10-02T18:53:13.303Z,10.90
2018-10-02T18:55:41.798Z,10.90
2018-10-02T18:58:10.319Z,10.90
2018-10-02T19:00:38.833Z,11.00
2018-10-02T19:03:07.346Z,10.90
2018-10-02T19:05:35.853Z,11.00
2018-10-02T19:08:04.402Z,11.00
2018-10-02T19:10:32.928Z,11.00
2018-10-02T19:13:01.446Z,10.90
2018-10-02T19:16:36.034Z,11.00
2018-10-02T19:19:04.729Z,11.00
2018-10-02T19:21:33.297Z,11.00
2018-10-02T19:24:01.799Z,11.00
2018-10-02T19:26:30.349Z,11.00
2018-10-02T19:28:59.298Z,10.90
2018-10-02T19:31:33.075Z,10.90
2018-10-02T19:34:01.902Z,11.00
2018-10-02T19:36:30.399Z,11.10
2018-10-02T19:39:00.903Z,11.10
2018-10-02T19:41:29.989Z,11.20
2018-10-02T19:43:58.518Z,11.00
2018-10-02T19:46:28.939Z,11.00
2018-10-02T19:48:57.481Z,11.00
2018-10-02T19:51:31.381Z,11.00
2018-10-02T19:53:59.891Z,11.00
2018-10-02T19:56:28.422Z,11.00
2018-10-02T19:58:56.973Z,11.00
2018-10-02T20:01:25.512Z,11.00
2018-10-02T20:03:54.029Z,11.00
2018-10-02T20:06:22.558Z,11.00
2018-10-02T20:08:51.074Z,11.00
2018-10-02T20:11:19.680Z,11.00
2018-10-02T20:13:48.310Z,11.00
2018-10-02T20:16:16.878Z,11.00
2018-10-02T20:18:45.402Z,11.00
2018-10-02T20:21:13.935Z,11.00
2018-10-02T20:23:42.481Z,11.00
2018-10-02T20:26:11.005Z,10.90
2018-10-02T20:28:39.518Z,10.80
2018-10-02T20:31:08.022Z,10.80
2018-10-02T20:33:36.541Z,10.90
2018-10-02T20:36:05.021Z,11.00
2018-10-02T20:38:33.546Z,10.80
2018-10-02T20:41:02.090Z,10.90
2018-10-02T20:43:30.615Z,10.90
2018-10-02T20:45:59.126Z,11.00
2018-10-02T20:48:27.659Z,11.00
2018-10-02T20:50:56.160Z,11.00
2018-10-02T20:53:24.725Z,10.90
2018-10-02T20:55:53.444Z,11.00
2018-10-02T20:58:22.253Z,10.90
2018-10-02T21:00:50.735Z,10.90
2018-10-02T21:03:19.252Z,10.90
2018-10-02T21:05:47.741Z,10.90
2018-10-02T21:08:16.256Z,11.00
2018-10-02T21:10:44.757Z,11.00
2018-10-02T21:13:13.270Z,11.00
2018-10-02T21:15:41.801Z,11.00
2018-10-02T21:18:10.352Z,11.00
2018-10-02T21:20:38.865Z,11.00
2018-10-02T21:23:07.617Z,11.00
2018-10-02T21:25:36.152Z,11.10
2018-10-02T21:28:04.681Z,11.10
2018-10-02T21:30:33.221Z,11.10
2018-10-02T21:33:01.713Z,11.20
2018-10-02T21:35:30.229Z,11.30
2018-10-02T21:37:58.735Z,11.20
2018-10-02T21:40:27.325Z,11.30
2018-10-02T21:42:55.772Z,11.30
2018-10-02T21:45:24.289Z,11.20
2018-10-02T21:47:52.777Z,11.20
2018-10-02T21:50:21.298Z,11.20
2018-10-02T21:52:49.801Z,11.20
2018-10-02T21:55:18.327Z,11.30
2018-10-02T21:57:46.812Z,11.30
2018-10-02T22:00:15.349Z,11.30
2018-10-02T22:02:43.849Z,11.30
2018-10-02T22:05:12.377Z,11.20
2018-10-02T22:07:40.861Z,11.20
2018-10-02T22:10:09.376Z,11.20
2018-10-02T22:12:37.870Z,11.20
2018-10-02T22:15:06.469Z,11.30
2018-10-02T22:17:34.959Z,11.20
2018-10-02T22:20:03.557Z,11.20
2018-10-02T22:22:32.148Z,11.10
2018-10-02T22:25:00.674Z,11.10
2018-10-02T22:27:29.182Z,11.10
2018-10-02T22:29:57.715Z,11.20
2018-10-02T22:32:26.397Z,11.20
2018-10-02T22:34:54.940Z,11.10
2018-10-02T22:37:23.449Z,11.10
2018-10-02T22:39:51.993Z,11.10
2018-10-02T22:42:20.513Z,11.20
2018-10-02T22:44:49.054Z,11.10
2018-10-02T22:47:17.565Z,11.00
2018-10-02T22:49:46.097Z,11.10
2018-10-02T22:52:14.612Z,11.10
2018-10-02T22:54:43.125Z,11.20
2018-10-02T22:57:11.692Z,11.10
2018-10-02T22:59:40.205Z,11.10
2018-10-02T23:02:08.765Z,11.00
2018-10-02T23:04:37.288Z,11.20
2018-10-02T23:07:05.953Z,11.20
2018-10-02T23:09:34.487Z,11.20
2018-10-02T23:12:03.025Z,11.20
2018-10-02T23:14:31.533Z,11.30
2018-10-02T23:17:00.067Z,11.30
2018-10-02T23:19:28.621Z,11.40
2018-10-02T23:21:57.170Z,11.30
2018-10-02T23:24:25.857Z,11.40
2018-10-02T23:26:54.397Z,11.30
2018-10-02T23:29:22.938Z,11.30
2018-10-02T23:31:51.490Z,11.30
2018-10-02T23:34:20.011Z,11.20
2018-10-02T23:36:48.590Z,11.30
2018-10-02T23:39:17.097Z,11.40
2018-10-02T23:41:45.646Z,11.30
2018-10-02T23:44:14.174Z,11.30
2018-10-02T23:46:42.724Z,11.30
2018-10-02T23:49:11.240Z,11.40
2018-10-02T23:51:39.784Z,11.40
2018-10-02T23:54:08.528Z,11.40
2018-10-02T23:56:37.073Z,11.40
2018-10-02T23:59:06.147Z,11.40
